Terminal Aerodrome Forecast
Issued by NWS

Home | Current Version | Previous Version | Text Only | Print | Product List | Glossary On
Versions: 1 2 3 4 5 6 7 8 9 10 11 12 13 14 15 16
000
FTUS43 KFGF 281139
TAFTVF
TAF
KTVF 281139Z 2812/2912 17015KT P6SM -RA BKN070
     FM281600 20015KT P6SM BKN050
     FM282200 22020G30KT P6SM SCT050
      AMD LTD TO CLD VIS AND WIND=

USA.gov is the U.S. government's official web portal to all federal, state and local government web resources and services.